createdAt,value
2022-12-27T00:00:46.777Z,4.15
2022-12-27T00:02:48.503Z,3.22
2022-12-27T00:04:50.457Z,3.97
2022-12-27T00:06:52.114Z,4.13
2022-12-27T00:08:54.922Z,2.60
2022-12-27T00:10:56.556Z,4.75
2022-12-27T00:12:58.205Z,6.20
2022-12-27T00:14:59.943Z,2.53
2022-12-27T00:17:01.646Z,3.10
2022-12-27T00:19:03.922Z,2.20
2022-12-27T00:21:07.085Z,2.40
2022-12-27T00:23:09.012Z,3.08
2022-12-27T00:25:11.203Z,2.42
2022-12-27T00:27:12.848Z,2.88
2022-12-27T00:29:14.484Z,2.50
2022-12-27T00:31:17.558Z,2.25
2022-12-27T00:33:19.270Z,2.25
2022-12-27T00:35:20.882Z,2.42
2022-12-27T00:37:22.549Z,1.77
2022-12-27T00:39:24.244Z,3.47
2022-12-27T00:41:26.871Z,3.10
2022-12-27T00:43:28.725Z,1.55
2022-12-27T00:45:30.384Z,1.35
2022-12-27T00:47:32.053Z,2.55
2022-12-27T00:49:33.736Z,2.55
2022-12-27T00:51:35.470Z,3.05
2022-12-27T00:53:37.347Z,2.35
2022-12-27T00:55:42.016Z,1.75
2022-12-27T00:57:43.693Z,1.65
2022-12-27T00:59:45.321Z,2.38
2022-12-27T01:01:47.106Z,2.83
2022-12-27T01:03:48.933Z,1.70
2022-12-27T01:05:50.640Z,1.55
2022-12-27T01:07:52.287Z,1.70
2022-12-27T01:09:53.901Z,2.20
2022-12-27T01:11:55.493Z,1.60
2022-12-27T01:13:59.500Z,13.50
2022-12-27T01:16:01.202Z,1.52
2022-12-27T01:18:03.557Z,1.83
2022-12-27T01:20:05.715Z,1.80
2022-12-27T01:22:07.642Z,1.65
2022-12-27T01:24:09.363Z,2.08
2022-12-27T01:26:17.313Z,1.50
2022-12-27T01:28:18.994Z,2.55
2022-12-27T01:30:20.614Z,1.63
2022-12-27T01:32:22.236Z,3.25
2022-12-27T01:34:23.904Z,1.65
2022-12-27T01:36:27.356Z,1.58
2022-12-27T01:38:28.996Z,1.48
2022-12-27T01:40:30.656Z,1.10
2022-12-27T01:42:50.760Z,2.30
2022-12-27T01:44:57.659Z,1.17
2022-12-27T01:47:00.315Z,1.95
2022-12-27T01:49:05.081Z,1.45
2022-12-27T01:51:08.100Z,2.47
2022-12-27T01:53:13.611Z,1.98
2022-12-27T01:55:26.930Z,2.00
2022-12-27T01:57:29.353Z,2.33
2022-12-27T01:59:32.131Z,1.63
2022-12-27T02:01:43.301Z,1.27
2022-12-27T02:03:58.126Z,1.63
2022-12-27T02:06:02.309Z,1.60
2022-12-27T02:08:10.119Z,1.40
2022-12-27T02:10:12.180Z,1.67
2022-12-27T02:12:14.116Z,1.17
2022-12-27T02:14:23.388Z,2.75
2022-12-27T02:16:27.778Z,1.23
2022-12-27T02:18:29.437Z,1.10
2022-12-27T02:21:05.879Z,1.23
2022-12-27T02:23:40.892Z,1.20
2022-12-27T02:26:13.076Z,1.10
2022-12-27T02:28:45.568Z,0.90
2022-12-27T02:30:49.916Z,1.30
2022-12-27T02:33:12.427Z,1.20
2022-12-27T02:35:36.637Z,0.98
2022-12-27T02:37:49.113Z,1.13
2022-12-27T02:39:52.303Z,1.90
2022-12-27T02:42:14.690Z,0.88
2022-12-27T02:44:37.294Z,1.38
2022-12-27T02:46:57.847Z,1.92
2022-12-27T02:49:38.756Z,1.35
2022-12-27T02:52:30.668Z,0.90
2022-12-27T02:54:38.166Z,0.88
2022-12-27T02:57:10.082Z,0.80
2022-12-27T02:59:59.727Z,3.83
2022-12-27T03:02:47.412Z,1.40
2022-12-27T03:05:12.263Z,0.75
2022-12-27T03:07:20.192Z,1.85
2022-12-27T03:10:05.380Z,0.80
2022-12-27T03:12:42.783Z,1.27
2022-12-27T03:15:06.291Z,0.60
2022-12-27T03:17:14.624Z,1.02
2022-12-27T03:19:42.305Z,0.95
2022-12-27T03:22:06.867Z,1.23
2022-12-27T03:24:29.986Z,0.93
2022-12-27T03:26:34.431Z,1.02
2022-12-27T03:28:55.952Z,0.98
2022-12-27T03:31:28.341Z,1.20
2022-12-27T03:33:32.200Z,0.80
2022-12-27T03:36:13.680Z,0.70
2022-12-27T03:41:04.275Z,0.85
2022-12-27T03:43:15.142Z,1.25
2022-12-27T03:45:21.203Z,0.88
2022-12-27T03:47:41.367Z,0.70
2022-12-27T03:50:06.653Z,0.93
2022-12-27T03:52:08.402Z,1.33
2022-12-27T03:54:26.580Z,1.88
2022-12-27T03:56:29.352Z,0.60
2022-12-27T03:58:30.970Z,0.60
2022-12-27T04:00:32.621Z,0.80
2022-12-27T04:02:34.529Z,1.27
2022-12-27T04:04:36.747Z,0.50
2022-12-27T04:06:38.432Z,1.38
2022-12-27T04:08:58.700Z,1.17
2022-12-27T04:11:19.326Z,1.50
2022-12-27T04:13:39.693Z,1.17
2022-12-27T04:16:00.245Z,0.70
2022-12-27T04:18:20.710Z,0.57
2022-12-27T04:20:41.226Z,0.80
2022-12-27T04:23:01.820Z,1.05
2022-12-27T04:25:22.285Z,0.93
2022-12-27T04:27:42.677Z,1.17
2022-12-27T04:30:03.061Z,0.70
2022-12-27T04:32:23.606Z,0.70
2022-12-27T04:34:43.906Z,0.73
2022-12-27T04:36:45.764Z,0.77
2022-12-27T04:38:47.422Z,0.80
2022-12-27T04:41:07.436Z,1.92
2022-12-27T04:43:27.988Z,0.55
2022-12-27T04:45:48.307Z,0.93
2022-12-27T04:48:13.213Z,1.37
2022-12-27T04:50:50.581Z,1.17
2022-12-27T04:53:11.090Z,1.15
2022-12-27T04:55:19.841Z,0.57
2022-12-27T04:57:21.493Z,0.95
2022-12-27T04:59:41.815Z,1.25
2022-12-27T05:02:02.385Z,0.77
2022-12-27T05:04:04.256Z,0.68
2022-12-27T05:06:06.886Z,0.40
2022-12-27T05:08:27.509Z,0.90
2022-12-27T05:10:47.804Z,0.98
2022-12-27T05:13:08.050Z,0.83
2022-12-27T05:15:09.802Z,2.22
2022-12-27T05:17:11.760Z,0.70
2022-12-27T05:19:14.634Z,0.50
2022-12-27T05:21:16.300Z,0.63
2022-12-27T05:23:36.755Z,0.60
2022-12-27T05:25:43.273Z,0.60
2022-12-27T05:27:44.924Z,0.55
2022-12-27T05:29:47.332Z,0.75
2022-12-27T05:31:48.966Z,0.70
2022-12-27T05:33:51.693Z,3.45
2022-12-27T05:35:53.281Z,1.38
2022-12-27T05:37:57.603Z,3.50
2022-12-27T05:39:59.276Z,2.97
2022-12-27T05:42:00.983Z,4.40
2022-12-27T05:44:07.124Z,5.68
2022-12-27T05:46:15.239Z,11.23
2022-12-27T05:48:16.929Z,19.50
2022-12-27T05:50:18.759Z,10.02
2022-12-27T05:52:20.555Z,12.27
2022-12-27T05:54:22.171Z,4.25
2022-12-27T05:56:24.023Z,16.77
2022-12-27T05:58:25.725Z,5.57
2022-12-27T06:00:27.536Z,5.20
2022-12-27T06:02:29.356Z,13.50
2022-12-27T06:04:31.237Z,10.35
2022-12-27T06:06:34.496Z,5.03
2022-12-27T06:08:36.678Z,6.38
2022-12-27T06:10:38.957Z,4.82
2022-12-27T06:12:40.611Z,2.70
2022-12-27T06:14:42.307Z,13.25
2022-12-27T06:16:44.050Z,19.35
2022-12-27T06:18:45.717Z,32.67
2022-12-27T06:20:47.365Z,15.82
2022-12-27T06:22:49.067Z,6.50
2022-12-27T06:24:52.236Z,7.28
2022-12-27T06:26:53.859Z,8.35
2022-12-27T06:28:57.051Z,11.98
2022-12-27T06:31:00.128Z,6.38
2022-12-27T06:33:01.736Z,12.48
2022-12-27T06:35:03.836Z,4.93
2022-12-27T06:37:05.482Z,13.93
2022-12-27T06:39:07.094Z,18.00
2022-12-27T06:41:11.003Z,15.23
2022-12-27T06:43:12.745Z,19.20
2022-12-27T06:45:14.464Z,12.10
2022-12-27T06:47:16.400Z,8.10
2022-12-27T06:49:18.116Z,10.10
2022-12-27T06:51:21.023Z,6.63
2022-12-27T06:53:22.735Z,9.63
2022-12-27T06:55:24.480Z,6.47
2022-12-27T06:57:26.248Z,13.73
2022-12-27T06:59:27.896Z,5.18
2022-12-27T07:01:29.604Z,6.55
2022-12-27T07:03:31.285Z,10.38
2022-12-27T07:05:35.492Z,10.48
2022-12-27T07:07:37.115Z,3.50
2022-12-27T07:09:38.715Z,10.18
2022-12-27T07:11:40.423Z,7.78
2022-12-27T07:13:44.606Z,5.57
2022-12-27T07:15:46.232Z,1.85
2022-12-27T07:17:47.867Z,8.88
2022-12-27T07:19:49.482Z,13.02
2022-12-27T07:21:51.145Z,6.30
2022-12-27T07:23:53.072Z,7.47
2022-12-27T07:25:54.688Z,5.68
2022-12-27T07:27:56.341Z,10.65
2022-12-27T07:29:57.992Z,8.20
2022-12-27T07:31:59.684Z,13.70
2022-12-27T07:34:03.333Z,5.45
2022-12-27T07:36:07.806Z,6.90
2022-12-27T07:38:09.499Z,10.35
2022-12-27T07:40:11.394Z,9.45
2022-12-27T07:42:13.329Z,13.88
2022-12-27T07:44:14.999Z,15.45
2022-12-27T07:46:19.426Z,6.68
2022-12-27T07:48:21.463Z,9.25
2022-12-27T07:50:23.169Z,14.63
2022-12-27T07:52:24.828Z,9.30
2022-12-27T07:54:26.490Z,7.43
2022-12-27T07:56:29.537Z,5.10
2022-12-27T07:58:34.923Z,5.25
2022-12-27T08:00:36.954Z,10.27
2022-12-27T08:02:38.651Z,4.47
2022-12-27T08:04:40.362Z,6.45
2022-12-27T08:06:42.072Z,10.25
2022-12-27T08:08:45.432Z,9.27
2022-12-27T08:10:47.057Z,4.13
2022-12-27T08:12:48.689Z,6.05
2022-12-27T08:14:50.334Z,5.03
2022-12-27T08:16:52.071Z,8.50
2022-12-27T08:18:53.992Z,3.72
2022-12-27T08:20:56.088Z,8.13
2022-12-27T08:22:57.736Z,4.97
2022-12-27T08:24:59.423Z,8.02
2022-12-27T08:27:01.056Z,23.90
2022-12-27T08:29:02.703Z,26.23
2022-12-27T08:31:07.813Z,25.92
2022-12-27T08:33:10.376Z,28.67
2022-12-27T08:35:50.206Z,19.55
2022-12-27T08:37:33.851Z,28.00
2022-12-27T08:39:35.483Z,27.95
2022-12-27T08:41:37.223Z,26.48
2022-12-27T08:43:38.891Z,28.17
2022-12-27T08:45:40.650Z,24.35
2022-12-27T08:47:42.321Z,26.77
2022-12-27T08:49:43.924Z,27.23
2022-12-27T08:51:45.631Z,27.05
2022-12-27T08:53:49.644Z,35.15
2022-12-27T08:55:51.400Z,34.35
2022-12-27T08:58:00.128Z,33.92
2022-12-27T09:00:01.952Z,30.80
2022-12-27T09:02:03.680Z,28.48
2022-12-27T09:04:05.605Z,27.10
2022-12-27T09:06:12.108Z,21.40
2022-12-27T09:08:13.707Z,26.05
2022-12-27T09:10:16.249Z,23.23
2022-12-27T09:12:17.868Z,21.90
2022-12-27T09:14:20.140Z,31.35
2022-12-27T09:16:27.501Z,30.88
2022-12-27T09:18:29.201Z,23.20
2022-12-27T09:20:31.247Z,28.77
2022-12-27T09:22:32.921Z,18.35
2022-12-27T09:24:34.614Z,27.17
2022-12-27T09:26:36.275Z,18.15
2022-12-27T09:28:38.878Z,19.75
2022-12-27T09:30:40.557Z,18.40
2022-12-27T09:32:42.229Z,19.23
2022-12-27T09:34:43.907Z,16.10
2022-12-27T09:36:45.533Z,24.73
2022-12-27T09:38:48.202Z,23.83
2022-12-27T09:40:55.451Z,25.02
2022-12-27T09:43:19.212Z,15.20
2022-12-27T09:45:42.225Z,45.33
2022-12-27T09:47:56.829Z,17.20
2022-12-27T09:50:06.331Z,17.58
2022-12-27T09:52:21.016Z,26.00
2022-12-27T09:54:27.932Z,14.48
2022-12-27T09:57:01.846Z,20.30
2022-12-27T09:59:02.891Z,17.80
2022-12-27T10:01:19.894Z,23.85
2022-12-27T10:03:25.788Z,15.95
2022-12-27T10:05:33.241Z,22.27
2022-12-27T10:08:10.162Z,26.73
2022-12-27T10:10:43.113Z,24.10
2022-12-27T10:13:18.601Z,11.20
2022-12-27T10:15:40.469Z,12.00
2022-12-27T10:17:51.162Z,14.30
2022-12-27T10:20:07.657Z,25.60
2022-12-27T10:22:30.740Z,22.67
2022-12-27T10:24:39.372Z,17.13
2022-12-27T10:26:41.046Z,12.63
2022-12-27T10:28:46.110Z,21.02
2022-12-27T10:30:47.712Z,8.98
2022-12-27T10:32:49.803Z,15.48
2022-12-27T10:35:01.160Z,15.60
2022-12-27T10:37:02.779Z,9.88
2022-12-27T10:39:16.972Z,13.45
2022-12-27T10:41:33.985Z,11.27
2022-12-27T10:43:40.072Z,6.80
2022-12-27T10:45:42.660Z,11.45
2022-12-27T10:47:44.341Z,9.05
2022-12-27T10:50:13.149Z,12.00
2022-12-27T10:52:23.974Z,11.43
2022-12-27T10:54:29.604Z,12.07
2022-12-27T10:56:37.232Z,7.53
2022-12-27T10:58:46.662Z,10.38
2022-12-27T11:00:56.783Z,7.93
2022-12-27T11:03:03.253Z,11.77
2022-12-27T11:05:05.158Z,3.83
2022-12-27T11:07:18.700Z,4.90
2022-12-27T11:09:33.639Z,6.38
2022-12-27T11:11:35.277Z,3.58
2022-12-27T11:13:36.897Z,4.38
2022-12-27T11:15:42.194Z,5.45
2022-12-27T11:17:55.828Z,3.67
2022-12-27T11:20:01.486Z,9.13
2022-12-27T11:22:07.292Z,8.45
2022-12-27T11:24:16.301Z,5.40
2022-12-27T11:26:29.262Z,9.13
2022-12-27T11:28:38.144Z,8.13
2022-12-27T11:30:41.432Z,11.27
2022-12-27T11:32:45.300Z,14.48
2022-12-27T11:34:49.009Z,8.80
2022-12-27T11:36:54.323Z,14.23
2022-12-27T11:38:56.470Z,10.35
2022-12-27T11:41:12.504Z,15.90
2022-12-27T11:43:17.637Z,16.83
2022-12-27T11:45:19.279Z,153.23
2022-12-27T11:48:01.415Z,80.30
2022-12-27T11:50:05.768Z,90.13
2022-12-27T11:52:26.219Z,71.22
2022-12-27T11:54:55.890Z,62.17
2022-12-27T11:57:15.451Z,59.83
2022-12-27T11:59:34.928Z,56.10
2022-12-27T12:01:46.331Z,55.45
2022-12-27T12:03:48.069Z,56.40
2022-12-27T12:06:20.021Z,71.50
2022-12-27T12:08:40.041Z,52.13
2022-12-27T12:10:44.801Z,55.58
2022-12-27T12:13:16.186Z,38.13
2022-12-27T12:18:05.639Z,43.65
2022-12-27T12:20:38.442Z,35.65
2022-12-27T12:23:09.161Z,39.22
2022-12-27T12:25:37.921Z,33.75
2022-12-27T12:28:23.311Z,45.30
2022-12-27T12:31:00.148Z,41.50
2022-12-27T12:33:13.773Z,39.65
2022-12-27T12:35:25.228Z,34.13
2022-12-27T12:38:01.908Z,32.13
2022-12-27T12:40:14.421Z,32.03
2022-12-27T12:42:27.179Z,34.05
2022-12-27T12:45:03.921Z,29.85
2022-12-27T12:47:16.453Z,26.90
2022-12-27T12:49:42.824Z,20.77
2022-12-27T12:51:50.281Z,31.27
2022-12-27T12:54:20.818Z,29.05
2022-12-27T12:56:53.507Z,25.63
2022-12-27T12:59:12.064Z,24.80
2022-12-27T13:01:51.132Z,20.77
2022-12-27T13:03:55.801Z,22.77
2022-12-27T13:06:34.843Z,22.13
2022-12-27T13:08:55.907Z,23.38
2022-12-27T13:11:15.740Z,22.90
2022-12-27T13:13:50.551Z,19.85
2022-12-27T13:16:21.669Z,16.50
2022-12-27T13:19:01.911Z,20.58
2022-12-27T13:21:16.627Z,16.50
2022-12-27T13:23:38.805Z,13.25
2022-12-27T13:26:01.456Z,17.63
2022-12-27T13:28:25.310Z,16.50
2022-12-27T13:30:42.815Z,15.45
2022-12-27T13:33:12.721Z,15.80
2022-12-27T13:35:28.324Z,13.27
2022-12-27T13:38:07.579Z,15.27
2022-12-27T13:40:27.713Z,13.70
2022-12-27T13:42:47.396Z,12.23
2022-12-27T13:45:03.733Z,13.88
2022-12-27T13:47:32.383Z,14.10
2022-12-27T13:50:11.041Z,12.68
2022-12-27T13:52:39.560Z,11.02
2022-12-27T13:55:18.776Z,12.50
2022-12-27T13:58:00.200Z,10.55
2022-12-27T14:02:19.578Z,10.45
2022-12-27T14:04:49.966Z,10.00
2022-12-27T14:07:24.831Z,9.88
2022-12-27T14:09:29.642Z,10.45
2022-12-27T14:11:31.201Z,8.75
2022-12-27T14:13:41.346Z,9.73
2022-12-27T14:15:58.072Z,9.40
2022-12-27T14:17:59.741Z,6.38
2022-12-27T14:20:16.802Z,7.93
2022-12-27T14:22:37.196Z,9.07
2022-12-27T14:25:06.685Z,7.55
2022-12-27T14:27:46.123Z,7.88
2022-12-27T14:30:18.769Z,5.55
2022-12-27T14:32:36.530Z,8.93
2022-12-27T14:35:00.198Z,7.25
2022-12-27T14:37:20.652Z,6.32
2022-12-27T14:40:01.641Z,6.00
2022-12-27T14:42:41.358Z,5.50
2022-12-27T14:45:09.126Z,6.72
2022-12-27T14:47:26.485Z,4.57
2022-12-27T14:49:40.484Z,4.38
2022-12-27T14:52:26.075Z,6.60
2022-12-27T14:54:46.329Z,6.20
2022-12-27T14:57:33.332Z,5.60
2022-12-27T15:00:06.823Z,6.35
2022-12-27T15:02:35.755Z,5.13
2022-12-27T15:04:40.255Z,5.60
2022-12-27T15:06:47.837Z,6.03
2022-12-27T15:09:36.925Z,5.07
2022-12-27T15:12:23.283Z,4.15
2022-12-27T15:14:48.057Z,4.13
2022-12-27T15:16:55.575Z,5.70
2022-12-27T15:19:29.385Z,3.35
2022-12-27T15:22:02.175Z,2.85
2022-12-27T15:24:38.595Z,4.25
2022-12-27T15:26:54.985Z,2.72
2022-12-27T15:29:38.465Z,3.58
2022-12-27T15:31:46.013Z,3.60
2022-12-27T15:34:05.473Z,5.65
2022-12-27T15:36:18.241Z,2.88
2022-12-27T15:38:41.922Z,3.38
2022-12-27T15:40:51.653Z,4.13
2022-12-27T15:42:59.753Z,3.63
2022-12-27T15:45:32.137Z,2.63
2022-12-27T15:48:07.995Z,3.58
2022-12-27T15:50:22.826Z,3.72
2022-12-27T15:52:54.469Z,2.97
2022-12-27T15:55:27.864Z,2.70
2022-12-27T15:57:46.534Z,3.72
2022-12-27T16:00:14.810Z,4.00
2022-12-27T16:02:48.794Z,1.92
2022-12-27T16:04:56.687Z,3.42
2022-12-27T16:07:04.001Z,2.20
2022-12-27T16:09:24.449Z,2.50
2022-12-27T16:11:58.245Z,2.28
2022-12-27T16:14:24.606Z,2.50
2022-12-27T16:16:29.088Z,2.63
2022-12-27T16:18:33.708Z,2.78
2022-12-27T16:20:35.490Z,2.45
2022-12-27T16:23:03.061Z,3.42
2022-12-27T16:25:40.071Z,1.98
2022-12-27T16:27:43.356Z,2.20
2022-12-27T16:29:45.842Z,3.15
2022-12-27T16:31:51.257Z,2.50
2022-12-27T16:33:55.397Z,2.13
2022-12-27T16:36:12.335Z,3.13
2022-12-27T16:38:22.170Z,3.33
2022-12-27T16:40:26.509Z,3.13
2022-12-27T16:42:51.736Z,3.58
2022-12-27T16:45:05.962Z,8.10
2022-12-27T16:47:28.684Z,5.40
2022-12-27T16:49:55.346Z,6.72
2022-12-27T16:52:18.795Z,5.00
2022-12-27T16:54:43.839Z,6.85
2022-12-27T16:56:48.196Z,6.13
2022-12-27T16:58:50.921Z,6.85
2022-12-27T17:00:54.733Z,6.43
2022-12-27T17:03:21.833Z,5.00
2022-12-27T17:05:26.853Z,5.30
2022-12-27T17:07:49.664Z,3.33
2022-12-27T17:09:51.350Z,11.32
2022-12-27T17:11:52.935Z,6.22
2022-12-27T17:14:27.902Z,4.72
2022-12-27T17:16:41.432Z,8.60
2022-12-27T17:18:58.376Z,11.20
2022-12-27T17:21:07.104Z,10.30
2022-12-27T17:23:08.792Z,12.63
2022-12-27T17:25:22.620Z,14.02
2022-12-27T17:27:30.095Z,11.90
2022-12-27T17:29:37.778Z,16.55
2022-12-27T17:31:44.041Z,8.63
2022-12-27T17:34:13.951Z,13.80
2022-12-27T17:36:21.683Z,11.60
2022-12-27T17:38:41.939Z,7.63
2022-12-27T17:41:15.185Z,15.00
2022-12-27T17:44:23.125Z,7.75
2022-12-27T17:46:44.098Z,11.50
2022-12-27T17:48:46.242Z,6.28
2022-12-27T17:50:48.151Z,9.73
2022-12-27T17:53:41.651Z,9.38
2022-12-27T17:56:05.221Z,6.75
2022-12-27T17:58:10.633Z,7.50
2022-12-27T18:00:24.979Z,7.38
2022-12-27T18:02:34.293Z,6.15
2022-12-27T18:04:39.413Z,11.82
2022-12-27T18:06:41.067Z,9.48
2022-12-27T18:08:42.692Z,16.55
2022-12-27T18:10:44.529Z,7.32
2022-12-27T18:12:51.373Z,11.60
2022-12-27T18:15:04.352Z,7.10
2022-12-27T18:17:06.240Z,10.48
2022-12-27T18:19:08.010Z,13.27
2022-12-27T18:21:24.519Z,12.07
2022-12-27T18:23:27.115Z,10.25
2022-12-27T18:25:40.972Z,9.80
2022-12-27T18:27:42.589Z,5.45
2022-12-27T18:29:44.765Z,9.52
2022-12-27T18:31:52.403Z,6.93
2022-12-27T18:33:59.201Z,6.57
2022-12-27T18:36:04.188Z,3.83
2022-12-27T18:38:08.142Z,12.23
2022-12-27T18:40:20.957Z,12.27
2022-12-27T18:42:41.017Z,6.95
2022-12-27T18:44:53.265Z,11.00
2022-12-27T18:46:57.985Z,8.95
2022-12-27T18:49:00.235Z,5.50
2022-12-27T18:51:03.085Z,8.10
2022-12-27T18:53:04.702Z,6.18
2022-12-27T18:55:20.584Z,6.45
2022-12-27T18:57:33.504Z,5.38
2022-12-27T18:59:36.107Z,7.45
2022-12-27T19:01:42.211Z,13.98
2022-12-27T19:03:43.893Z,13.88
2022-12-27T19:06:00.491Z,14.63
2022-12-27T19:08:12.063Z,13.95
2022-12-27T19:10:26.454Z,12.50
2022-12-27T19:12:34.820Z,10.48
2022-12-27T19:14:45.408Z,12.05
2022-12-27T19:17:01.094Z,8.15
2022-12-27T19:19:10.247Z,13.05
2022-12-27T19:21:16.344Z,9.98
2022-12-27T19:23:31.594Z,9.10
2022-12-27T19:25:36.578Z,8.85
2022-12-27T19:27:38.220Z,8.27
2022-12-27T19:29:51.314Z,7.00
2022-12-27T19:31:59.161Z,9.25
2022-12-27T19:34:06.363Z,11.77
2022-12-27T19:36:10.143Z,9.18
2022-12-27T19:38:29.380Z,7.25
2022-12-27T19:40:31.220Z,11.07
2022-12-27T19:42:34.795Z,12.77
2022-12-27T19:44:37.793Z,17.65
2022-12-27T19:46:39.529Z,10.95
2022-12-27T19:48:41.652Z,15.70
2022-12-27T19:50:54.246Z,11.85
2022-12-27T19:52:56.098Z,7.88
2022-12-27T19:55:11.625Z,13.65
2022-12-27T19:57:13.763Z,8.75
2022-12-27T19:59:20.341Z,15.13
2022-12-27T20:01:22.114Z,9.60
2022-12-27T20:03:24.106Z,5.70
2022-12-27T20:06:14.910Z,8.00
2022-12-27T20:07:47.416Z,7.18
2022-12-27T20:09:50.020Z,8.70
2022-12-27T20:11:51.733Z,7.82
2022-12-27T20:13:53.376Z,7.07
2022-12-27T20:15:57.278Z,7.93
2022-12-27T20:17:58.920Z,5.05
2022-12-27T20:20:00.678Z,7.50
2022-12-27T20:22:02.573Z,6.47
2022-12-27T20:24:04.641Z,9.25
2022-12-27T20:26:06.284Z,7.43
2022-12-27T20:28:08.035Z,5.05
2022-12-27T20:30:10.678Z,4.13
2022-12-27T20:32:12.393Z,4.57
2022-12-27T20:34:14.248Z,7.32
2022-12-27T20:36:15.914Z,6.47
2022-12-27T20:38:17.530Z,5.20
2022-12-27T20:40:19.429Z,4.03
2022-12-27T20:42:21.137Z,4.13
2022-12-27T20:44:22.784Z,7.97
2022-12-27T20:46:25.126Z,3.33
2022-12-27T20:48:26.778Z,5.72
2022-12-27T20:50:28.978Z,5.28
2022-12-27T20:52:31.352Z,5.40
2022-12-27T20:54:33.512Z,4.38
2022-12-27T20:56:35.266Z,6.55
2022-12-27T20:58:36.956Z,7.45
2022-12-27T21:00:40.983Z,4.88
2022-12-27T21:02:42.924Z,5.70
2022-12-27T21:04:44.662Z,4.10
2022-12-27T21:06:46.404Z,6.38
2022-12-27T21:08:56.335Z,6.97
2022-12-27T21:11:05.689Z,6.93
2022-12-27T21:13:07.786Z,2.67
2022-12-27T21:15:10.776Z,2.97
2022-12-27T21:17:12.684Z,5.38
2022-12-27T21:19:14.986Z,4.28
2022-12-27T21:21:19.920Z,2.97
2022-12-27T21:23:21.710Z,4.32
2022-12-27T21:25:23.364Z,5.53
2022-12-27T21:27:25.017Z,3.13
2022-12-27T21:29:26.781Z,4.00
2022-12-27T21:31:29.299Z,2.95
2022-12-27T21:33:32.307Z,5.00
2022-12-27T21:35:33.947Z,3.25
2022-12-27T21:37:35.588Z,3.75
2022-12-27T21:39:37.253Z,3.40
2022-12-27T21:41:40.257Z,6.93
2022-12-27T21:43:42.677Z,3.92
2022-12-27T21:45:44.300Z,4.97
2022-12-27T21:47:45.945Z,7.47
2022-12-27T21:49:47.612Z,3.30
2022-12-27T21:51:49.693Z,3.42
2022-12-27T21:53:51.925Z,2.83
2022-12-27T21:55:58.126Z,3.60
2022-12-27T21:57:59.749Z,2.50
2022-12-27T22:00:01.441Z,2.30
2022-12-27T22:02:03.282Z,4.72
2022-12-27T22:04:05.342Z,2.88
2022-12-27T22:06:24.889Z,3.60
2022-12-27T22:08:26.545Z,3.08
2022-12-27T22:10:28.249Z,2.60
2022-12-27T22:12:29.910Z,5.95
2022-12-27T22:14:36.630Z,3.88
2022-12-27T22:16:39.686Z,3.70
2022-12-27T22:18:42.812Z,6.18
2022-12-27T22:20:47.032Z,2.63
2022-12-27T22:22:48.921Z,2.45
2022-12-27T22:24:50.603Z,3.15
2022-12-27T22:26:52.342Z,3.22
2022-12-27T22:28:54.086Z,3.17
2022-12-27T22:30:56.169Z,5.22
2022-12-27T22:32:57.882Z,4.97
2022-12-27T22:34:59.521Z,3.20
2022-12-27T22:37:01.115Z,2.22
2022-12-27T22:39:03.538Z,3.38
2022-12-27T22:41:12.636Z,1.98
2022-12-27T22:43:14.397Z,3.47
2022-12-27T22:45:16.120Z,2.00
2022-12-27T22:47:26.858Z,1.90
2022-12-27T22:49:29.454Z,1.75
2022-12-27T22:51:33.053Z,2.22
2022-12-27T22:53:34.939Z,2.38
2022-12-27T22:55:40.779Z,2.45
2022-12-27T22:57:42.475Z,2.03
2022-12-27T22:59:44.138Z,2.35
2022-12-27T23:01:46.161Z,2.30
2022-12-27T23:03:48.582Z,2.10
2022-12-27T23:06:00.383Z,2.15
2022-12-27T23:08:04.817Z,2.10
2022-12-27T23:10:09.361Z,3.75
2022-12-27T23:12:11.686Z,2.28
2022-12-27T23:14:15.201Z,4.25
2022-12-27T23:16:16.893Z,2.33
2022-12-27T23:18:18.584Z,2.33
2022-12-27T23:20:20.264Z,2.42
2022-12-27T23:22:21.860Z,1.88
2022-12-27T23:24:23.548Z,1.70
2022-12-27T23:26:25.254Z,2.47
2022-12-27T23:28:26.926Z,2.30
2022-12-27T23:30:28.603Z,5.53
2022-12-27T23:32:30.260Z,3.40
2022-12-27T23:34:31.914Z,1.85
2022-12-27T23:36:33.917Z,1.98
2022-12-27T23:38:35.698Z,2.33
2022-12-27T23:40:37.339Z,1.98
2022-12-27T23:42:38.986Z,1.80
2022-12-27T23:44:40.653Z,2.85
2022-12-27T23:46:42.380Z,2.22
2022-12-27T23:48:44.997Z,2.08
2022-12-27T23:50:47.598Z,2.92
2022-12-27T23:52:49.232Z,2.28
2022-12-27T23:54:50.881Z,2.10
2022-12-27T23:56:52.512Z,1.92
2022-12-27T23:58:56.292Z,2.70
